createdAt,value
2019-05-26T00:01:35.900Z,46.47
2019-05-26T00:04:04.375Z,44.40
2019-05-26T00:06:32.820Z,45.00
2019-05-26T00:09:01.225Z,43.77
2019-05-26T00:11:29.641Z,46.60
2019-05-26T00:13:58.058Z,45.07
2019-05-26T00:16:45.889Z,48.67
2019-05-26T00:19:14.309Z,44.20
2019-05-26T00:21:42.752Z,54.60
2019-05-26T00:24:11.157Z,46.83
2019-05-26T00:26:39.586Z,46.07
2019-05-26T00:29:07.998Z,50.17
2019-05-26T00:31:36.435Z,48.20
2019-05-26T00:34:04.848Z,49.33
2019-05-26T00:36:33.240Z,51.13
2019-05-26T00:39:01.655Z,49.40
2019-05-26T00:41:30.068Z,50.53
2019-05-26T00:43:58.466Z,48.80
2019-05-26T00:46:26.857Z,46.10
2019-05-26T00:48:55.241Z,46.63
2019-05-26T00:51:23.664Z,45.40
2019-05-26T00:53:52.067Z,46.70
2019-05-26T00:56:20.464Z,45.30
2019-05-26T00:58:48.903Z,43.33
2019-05-26T01:01:17.305Z,48.23
2019-05-26T01:03:45.779Z,45.43
2019-05-26T01:06:14.190Z,41.87
2019-05-26T01:08:42.765Z,46.33
2019-05-26T01:11:11.180Z,43.97
2019-05-26T01:13:39.868Z,47.93
2019-05-26T01:16:08.280Z,46.30
2019-05-26T01:18:36.675Z,45.80
2019-05-26T01:21:05.092Z,48.67
2019-05-26T01:23:33.622Z,50.33
2019-05-26T01:26:02.038Z,45.53
2019-05-26T01:28:30.444Z,45.53
2019-05-26T01:30:58.844Z,46.33
2019-05-26T01:33:27.281Z,47.40
2019-05-26T01:35:55.707Z,47.70
2019-05-26T01:38:24.710Z,47.70
2019-05-26T01:40:53.252Z,52.87
2019-05-26T01:43:21.651Z,48.87
2019-05-26T01:45:50.087Z,54.13
2019-05-26T01:48:18.566Z,49.90
2019-05-26T01:50:47.036Z,52.10
2019-05-26T01:53:15.466Z,50.40
2019-05-26T01:55:43.841Z,49.43
2019-05-26T01:58:12.741Z,48.90
2019-05-26T02:00:41.631Z,47.97
2019-05-26T02:03:10.067Z,48.80
2019-05-26T02:05:38.479Z,46.57
2019-05-26T02:08:06.912Z,48.67
2019-05-26T02:10:35.332Z,44.77
2019-05-26T02:13:03.732Z,45.13
2019-05-26T02:15:32.144Z,49.40
2019-05-26T02:18:00.646Z,45.07
2019-05-26T02:20:29.175Z,44.60
2019-05-26T02:22:57.557Z,45.73
2019-05-26T02:25:26.628Z,43.53
2019-05-26T02:27:55.066Z,42.57
2019-05-26T02:30:23.484Z,43.93
2019-05-26T02:32:51.960Z,41.87
2019-05-26T02:35:20.561Z,44.80
2019-05-26T02:37:48.950Z,43.00
2019-05-26T02:40:17.365Z,43.20
2019-05-26T02:42:45.794Z,44.20
2019-05-26T02:45:15.039Z,42.60
2019-05-26T02:47:44.294Z,41.90
2019-05-26T02:50:12.709Z,42.60
2019-05-26T02:52:41.140Z,44.57
2019-05-26T02:55:09.631Z,42.50
2019-05-26T02:57:40.085Z,41.33
2019-05-26T03:00:09.231Z,43.07
2019-05-26T03:02:37.659Z,44.43
2019-05-26T03:05:10.744Z,45.33
2019-05-26T03:07:43.686Z,44.57
2019-05-26T03:10:13.204Z,48.27
2019-05-26T03:12:41.995Z,45.20
2019-05-26T03:15:10.789Z,44.27
2019-05-26T03:17:39.195Z,42.97
2019-05-26T03:20:07.697Z,43.50
2019-05-26T03:22:36.141Z,39.93
2019-05-26T03:25:04.595Z,42.70
2019-05-26T03:27:33.031Z,42.27
2019-05-26T03:30:01.448Z,41.47
2019-05-26T03:32:29.853Z,42.80
2019-05-26T03:34:58.258Z,43.93
2019-05-26T03:37:26.687Z,43.37
2019-05-26T03:39:55.097Z,42.33
2019-05-26T03:42:23.525Z,38.87
2019-05-26T03:44:51.892Z,39.47
2019-05-26T03:47:20.342Z,41.97
2019-05-26T03:49:48.774Z,41.80
2019-05-26T03:52:17.208Z,40.57
2019-05-26T03:54:45.711Z,40.57
2019-05-26T03:57:15.140Z,38.07
2019-05-26T03:59:43.609Z,40.27
2019-05-26T04:02:11.951Z,37.83
2019-05-26T04:04:40.375Z,40.43
2019-05-26T04:07:08.750Z,39.80
2019-05-26T04:09:37.163Z,40.70
2019-05-26T04:12:05.576Z,40.10
2019-05-26T04:14:33.998Z,39.20
2019-05-26T04:17:02.512Z,41.90
2019-05-26T04:19:30.913Z,40.80
2019-05-26T04:21:59.340Z,39.37
2019-05-26T04:24:27.726Z,39.27
2019-05-26T04:26:56.166Z,37.67
2019-05-26T04:29:24.634Z,39.13
2019-05-26T04:31:53.062Z,38.63
2019-05-26T04:34:21.474Z,38.93
2019-05-26T04:36:49.952Z,37.40
2019-05-26T04:39:18.386Z,36.53
2019-05-26T04:41:47.083Z,34.43
2019-05-26T04:44:15.707Z,35.50
2019-05-26T04:47:03.513Z,36.27
2019-05-26T04:49:36.881Z,33.67
2019-05-26T04:52:01.936Z,35.10
2019-05-26T04:54:30.357Z,32.80
2019-05-26T04:56:58.766Z,34.90
2019-05-26T04:59:27.199Z,36.50
2019-05-26T05:01:55.621Z,34.43
2019-05-26T05:04:24.075Z,32.60
2019-05-26T05:06:52.513Z,31.57
2019-05-26T05:09:20.937Z,34.97
2019-05-26T05:11:49.344Z,31.53
2019-05-26T05:14:17.795Z,36.33
2019-05-26T05:16:46.237Z,34.13
2019-05-26T05:19:14.600Z,33.43
2019-05-26T05:21:43.024Z,36.30
2019-05-26T05:24:11.412Z,35.50
2019-05-26T05:26:40.859Z,32.83
2019-05-26T05:29:09.207Z,31.60
2019-05-26T05:31:37.691Z,33.77
2019-05-26T05:34:06.102Z,31.83
2019-05-26T05:36:34.649Z,30.60
2019-05-26T05:39:03.200Z,30.73
2019-05-26T05:41:31.646Z,29.47
2019-05-26T05:44:00.052Z,30.17
2019-05-26T05:46:28.468Z,30.00
2019-05-26T05:48:56.893Z,29.70
2019-05-26T05:51:25.303Z,28.47
2019-05-26T05:53:53.722Z,29.17
2019-05-26T05:56:22.115Z,32.40
2019-05-26T05:58:50.530Z,30.47
2019-05-26T06:01:18.939Z,29.93
2019-05-26T06:03:47.377Z,28.93
2019-05-26T06:06:15.802Z,31.93
2019-05-26T06:08:44.193Z,30.77
2019-05-26T06:11:16.364Z,28.77
2019-05-26T06:13:42.764Z,32.63
2019-05-26T06:16:11.180Z,27.67
2019-05-26T06:18:39.579Z,27.93
2019-05-26T06:21:08.000Z,29.40
2019-05-26T06:23:37.165Z,25.87
2019-05-26T06:26:05.847Z,30.00
2019-05-26T06:28:34.253Z,27.33
2019-05-26T06:31:02.716Z,26.97
2019-05-26T06:33:31.160Z,26.93
2019-05-26T06:35:59.536Z,26.53
2019-05-26T06:38:27.956Z,30.73
2019-05-26T06:40:56.358Z,27.67
2019-05-26T06:43:24.776Z,26.23
2019-05-26T06:45:53.175Z,25.90
2019-05-26T06:48:21.592Z,25.50
2019-05-26T06:50:50.014Z,26.63
2019-05-26T06:53:18.436Z,26.20
2019-05-26T06:55:47.168Z,26.77
2019-05-26T06:58:15.659Z,26.03
2019-05-26T07:00:44.144Z,24.13
2019-05-26T07:03:12.558Z,25.53
2019-05-26T07:05:40.931Z,24.07
2019-05-26T07:08:09.403Z,26.43
2019-05-26T07:10:37.804Z,27.70
2019-05-26T07:13:06.216Z,28.07
2019-05-26T07:15:34.608Z,27.90
2019-05-26T07:18:03.017Z,27.57
2019-05-26T07:20:31.412Z,27.27
2019-05-26T07:22:59.827Z,24.50
2019-05-26T07:25:28.247Z,24.73
2019-05-26T07:27:56.622Z,24.77
2019-05-26T07:30:25.040Z,30.47
2019-05-26T07:32:53.432Z,26.87
2019-05-26T07:35:21.842Z,28.57
2019-05-26T07:37:50.234Z,24.67
2019-05-26T07:40:18.664Z,24.83
2019-05-26T07:42:47.047Z,26.97
2019-05-26T07:45:15.502Z,27.33
2019-05-26T07:47:43.897Z,24.37
2019-05-26T07:50:12.292Z,27.23
2019-05-26T07:52:40.707Z,25.43
2019-05-26T07:55:09.096Z,25.43
2019-05-26T07:57:37.511Z,23.33
2019-05-26T08:00:07.547Z,25.30
2019-05-26T08:02:35.967Z,26.27
2019-05-26T08:05:06.216Z,20.40
2019-05-26T08:07:34.632Z,23.30
2019-05-26T08:10:03.320Z,20.77
2019-05-26T08:12:31.711Z,17.93
2019-05-26T08:15:00.226Z,18.77
2019-05-26T08:17:28.627Z,17.50
2019-05-26T08:19:57.032Z,17.87
2019-05-26T08:22:25.416Z,14.80
2019-05-26T08:24:53.861Z,12.90
2019-05-26T08:27:22.240Z,14.30
2019-05-26T08:29:50.648Z,17.20
2019-05-26T08:32:19.060Z,15.87
2019-05-26T08:34:47.472Z,11.73
2019-05-26T08:37:17.848Z,10.43
2019-05-26T08:39:48.565Z,13.63
2019-05-26T08:42:26.791Z,15.33
2019-05-26T08:44:47.886Z,14.53
2019-05-26T08:47:16.366Z,11.53
2019-05-26T08:49:44.777Z,10.47
2019-05-26T08:52:13.322Z,11.70
2019-05-26T08:54:41.721Z,14.07
2019-05-26T08:57:10.147Z,11.50
2019-05-26T08:59:38.557Z,10.57
2019-05-26T09:02:06.958Z,10.47
2019-05-26T09:04:35.382Z,14.17
2019-05-26T09:07:03.768Z,12.07
2019-05-26T09:09:32.185Z,15.97
2019-05-26T09:12:00.604Z,15.67
2019-05-26T09:14:28.983Z,14.90
2019-05-26T09:16:57.387Z,13.10
2019-05-26T09:19:25.781Z,11.00
2019-05-26T09:21:54.191Z,12.27
2019-05-26T09:24:22.614Z,10.47
2019-05-26T09:26:51.033Z,11.27
2019-05-26T09:29:19.435Z,9.60
2019-05-26T09:31:47.877Z,12.33
2019-05-26T09:34:16.267Z,10.00
2019-05-26T09:36:44.656Z,12.40
2019-05-26T09:39:13.074Z,11.10
2019-05-26T09:41:41.748Z,12.20
2019-05-26T09:44:10.131Z,12.77
2019-05-26T09:46:38.572Z,14.70
2019-05-26T09:49:07.067Z,11.33
2019-05-26T09:51:35.524Z,13.07
2019-05-26T09:54:03.923Z,10.50
2019-05-26T09:56:32.335Z,11.33
2019-05-26T09:59:00.736Z,13.13
2019-05-26T10:01:29.135Z,14.10
2019-05-26T10:03:57.536Z,12.63
2019-05-26T10:06:25.954Z,11.83
2019-05-26T10:08:54.344Z,11.03
2019-05-26T10:11:22.753Z,14.40
2019-05-26T10:13:51.135Z,10.83
2019-05-26T10:16:19.547Z,9.90
2019-05-26T10:18:47.931Z,11.17
2019-05-26T10:21:16.306Z,10.50
2019-05-26T10:23:44.713Z,10.70
2019-05-26T10:26:13.104Z,13.00
2019-05-26T10:28:41.515Z,12.70
2019-05-26T10:31:09.905Z,9.97
2019-05-26T10:33:38.346Z,9.10
2019-05-26T10:36:06.861Z,9.93
2019-05-26T10:38:35.439Z,10.63
2019-05-26T10:41:03.837Z,9.10
2019-05-26T10:43:46.220Z,9.77
2019-05-26T10:46:02.368Z,12.97
2019-05-26T10:48:30.768Z,9.30
2019-05-26T10:50:59.158Z,9.77
2019-05-26T10:53:27.606Z,10.17
2019-05-26T10:55:56.283Z,10.33
2019-05-26T10:58:24.676Z,10.90
2019-05-26T11:00:53.160Z,10.07
2019-05-26T11:03:21.517Z,9.67
2019-05-26T11:05:49.939Z,11.20
2019-05-26T11:08:18.366Z,10.30
2019-05-26T11:10:46.767Z,11.40
2019-05-26T11:13:15.196Z,8.97
2019-05-26T11:15:45.156Z,10.07
2019-05-26T11:18:13.648Z,11.37
2019-05-26T11:20:42.995Z,8.37
2019-05-26T11:23:13.162Z,8.40
2019-05-26T11:25:42.381Z,6.23
2019-05-26T11:28:10.802Z,10.40
2019-05-26T11:30:39.294Z,8.60
2019-05-26T11:33:07.826Z,7.67
2019-05-26T11:35:36.210Z,6.77
2019-05-26T11:38:04.944Z,7.10
2019-05-26T11:40:33.347Z,8.10
2019-05-26T11:43:15.651Z,10.10
2019-05-26T11:45:31.901Z,13.40
2019-05-26T11:48:00.323Z,7.33
2019-05-26T11:50:28.718Z,8.93
2019-05-26T11:52:57.089Z,6.40
2019-05-26T11:55:27.792Z,6.50
2019-05-26T11:57:55.531Z,7.90
2019-05-26T12:00:23.962Z,7.50
2019-05-26T12:02:52.315Z,8.60
2019-05-26T12:05:20.722Z,7.60
2019-05-26T12:07:49.107Z,8.03
2019-05-26T12:10:17.524Z,8.07
2019-05-26T12:12:45.936Z,8.23
2019-05-26T12:15:14.412Z,9.03
2019-05-26T12:17:42.848Z,7.60
2019-05-26T12:20:11.269Z,8.20
2019-05-26T12:22:39.677Z,6.73
2019-05-26T12:25:08.170Z,7.30
2019-05-26T12:27:36.581Z,6.60
2019-05-26T12:30:08.359Z,6.93
2019-05-26T12:32:36.755Z,5.30
2019-05-26T12:35:10.009Z,7.63
2019-05-26T12:37:38.477Z,4.50
2019-05-26T12:40:07.523Z,7.47
2019-05-26T12:42:35.955Z,6.17
2019-05-26T12:45:06.083Z,3.43
2019-05-26T12:47:35.447Z,4.10
2019-05-26T12:50:08.178Z,4.37
2019-05-26T12:52:36.569Z,5.10
2019-05-26T12:55:09.237Z,4.60
2019-05-26T12:57:36.766Z,3.43
2019-05-26T13:00:08.471Z,6.20
2019-05-26T13:02:36.870Z,3.03
2019-05-26T13:05:06.925Z,3.80
2019-05-26T13:07:35.321Z,4.97
2019-05-26T13:10:06.268Z,4.90
2019-05-26T13:12:34.676Z,3.63
2019-05-26T13:15:06.274Z,4.50
2019-05-26T13:17:33.113Z,2.60
2019-05-26T13:20:01.492Z,4.40
2019-05-26T13:22:29.912Z,3.83
2019-05-26T13:24:58.298Z,4.87
2019-05-26T13:27:26.795Z,4.50
2019-05-26T13:29:55.203Z,3.03
2019-05-26T13:32:23.630Z,3.17
2019-05-26T13:34:52.012Z,2.80
2019-05-26T13:37:21.341Z,2.20
2019-05-26T13:39:49.748Z,3.63
2019-05-26T13:42:18.123Z,5.43
2019-05-26T13:44:46.544Z,4.37
2019-05-26T13:47:25.733Z,3.53
2019-05-26T13:49:44.981Z,3.17
2019-05-26T13:52:13.404Z,5.73
2019-05-26T13:54:41.812Z,7.50
2019-05-26T13:57:10.225Z,2.70
2019-05-26T13:59:38.623Z,6.13
2019-05-26T14:02:07.019Z,3.10
2019-05-26T14:04:35.419Z,5.27
2019-05-26T14:07:03.840Z,3.60
2019-05-26T14:09:32.267Z,4.40
2019-05-26T14:12:00.678Z,4.90
2019-05-26T14:14:29.234Z,4.00
2019-05-26T14:16:58.007Z,3.83
2019-05-26T14:19:27.792Z,2.53
2019-05-26T14:21:56.188Z,5.80
2019-05-26T14:24:24.578Z,8.43
2019-05-26T14:26:52.964Z,6.30
2019-05-26T14:29:21.372Z,8.47
2019-05-26T14:31:52.705Z,12.80
2019-05-26T14:34:19.811Z,7.07
2019-05-26T14:36:48.288Z,5.70
2019-05-26T14:39:16.679Z,6.57
2019-05-26T14:41:45.151Z,4.00
2019-05-26T14:44:13.478Z,7.87
2019-05-26T14:46:41.868Z,8.13
2019-05-26T14:49:10.246Z,12.70
2019-05-26T14:51:38.672Z,5.97
2019-05-26T14:54:07.047Z,9.43
2019-05-26T14:56:35.438Z,4.37
2019-05-26T14:59:03.854Z,8.17
2019-05-26T15:01:32.252Z,5.37
2019-05-26T15:04:00.657Z,7.63
2019-05-26T15:06:29.036Z,6.43
2019-05-26T15:08:57.457Z,8.23
2019-05-26T15:11:25.799Z,7.60
2019-05-26T15:13:54.167Z,7.97
2019-05-26T15:16:22.548Z,4.83
2019-05-26T15:18:50.964Z,8.13
2019-05-26T15:21:19.341Z,7.47
2019-05-26T15:23:47.749Z,8.20
2019-05-26T15:26:16.134Z,9.13
2019-05-26T15:28:44.516Z,6.00
2019-05-26T15:31:12.946Z,19.30
2019-05-26T15:33:41.334Z,10.73
2019-05-26T15:36:09.726Z,6.13
2019-05-26T15:38:42.797Z,9.90
2019-05-26T15:41:08.225Z,9.70
2019-05-26T15:43:36.616Z,8.43
2019-05-26T15:46:05.043Z,10.50
2019-05-26T15:48:33.468Z,5.43
2019-05-26T15:51:01.889Z,9.00
2019-05-26T15:53:30.241Z,8.53
2019-05-26T15:55:58.638Z,11.87
2019-05-26T15:58:27.042Z,5.63
2019-05-26T16:00:55.420Z,6.70
2019-05-26T16:03:23.855Z,10.87
2019-05-26T16:05:52.239Z,5.03
2019-05-26T16:08:21.764Z,7.87
2019-05-26T16:10:50.173Z,9.57
2019-05-26T16:13:18.676Z,8.30
2019-05-26T16:15:47.180Z,7.23
2019-05-26T16:18:15.590Z,7.43
2019-05-26T16:20:43.986Z,6.50
2019-05-26T16:23:12.359Z,6.53
2019-05-26T16:25:40.840Z,5.03
2019-05-26T16:28:09.306Z,8.83
2019-05-26T16:30:37.711Z,16.60
2019-05-26T16:33:06.120Z,12.53
2019-05-26T16:35:34.531Z,5.70
2019-05-26T16:38:02.936Z,9.87
2019-05-26T16:40:31.322Z,6.70
2019-05-26T16:42:59.742Z,7.23
2019-05-26T16:45:28.165Z,7.10
2019-05-26T16:47:56.650Z,10.23
2019-05-26T16:50:25.175Z,11.20
2019-05-26T16:52:54.717Z,10.87
2019-05-26T16:55:23.367Z,6.17
2019-05-26T16:57:51.795Z,10.10
2019-05-26T17:00:20.331Z,10.53
2019-05-26T17:02:48.728Z,9.73
2019-05-26T17:05:17.203Z,11.70
2019-05-26T17:07:45.789Z,10.87
2019-05-26T17:10:14.194Z,10.83
2019-05-26T17:12:42.589Z,11.57
2019-05-26T17:15:10.974Z,8.50
2019-05-26T17:17:39.377Z,8.80
2019-05-26T17:20:08.056Z,10.83
2019-05-26T17:22:36.557Z,8.93
2019-05-26T17:25:05.684Z,10.67
2019-05-26T17:27:34.102Z,9.33
2019-05-26T17:30:02.614Z,7.07
2019-05-26T17:32:31.120Z,11.00
2019-05-26T17:34:59.528Z,10.03
2019-05-26T17:37:27.907Z,10.87
2019-05-26T17:39:56.335Z,9.63
2019-05-26T17:42:24.708Z,6.10
2019-05-26T17:44:53.140Z,10.37
2019-05-26T17:47:29.982Z,8.90
2019-05-26T17:49:51.668Z,11.80
2019-05-26T17:52:20.058Z,9.03
2019-05-26T17:54:48.464Z,9.30
2019-05-26T17:57:16.845Z,8.03
2019-05-26T17:59:45.235Z,8.47
2019-05-26T18:02:13.649Z,11.10
2019-05-26T18:04:42.074Z,7.33
2019-05-26T18:07:10.476Z,9.13
2019-05-26T18:09:44.263Z,15.07
2019-05-26T18:12:08.983Z,11.67
2019-05-26T18:14:37.393Z,9.87
2019-05-26T18:17:05.801Z,8.87
2019-05-26T18:19:34.185Z,10.10
2019-05-26T18:22:02.627Z,14.20
2019-05-26T18:24:31.013Z,8.83
2019-05-26T18:26:59.512Z,13.43
2019-05-26T18:29:27.977Z,13.13
2019-05-26T18:31:56.521Z,13.97
2019-05-26T18:34:25.270Z,13.33
2019-05-26T18:36:53.765Z,15.00
2019-05-26T18:39:22.221Z,13.53
2019-05-26T18:41:50.688Z,15.60
2019-05-26T18:44:19.158Z,16.17
2019-05-26T18:46:47.584Z,16.77
2019-05-26T18:49:16.037Z,14.90
2019-05-26T18:51:44.444Z,16.53
2019-05-26T18:54:12.837Z,12.83
2019-05-26T18:56:41.265Z,12.27
2019-05-26T18:59:09.666Z,16.87
2019-05-26T19:01:38.076Z,20.10
2019-05-26T19:04:06.689Z,14.97
2019-05-26T19:06:35.181Z,20.67
2019-05-26T19:09:05.366Z,15.27
2019-05-26T19:11:38.100Z,13.13
2019-05-26T19:14:06.573Z,18.33
2019-05-26T19:16:35.023Z,15.67
2019-05-26T19:19:03.569Z,17.80
2019-05-26T19:21:31.971Z,14.93
2019-05-26T19:24:00.376Z,19.87
2019-05-26T19:26:28.780Z,16.87
2019-05-26T19:28:57.166Z,17.93
2019-05-26T19:31:25.704Z,18.73
2019-05-26T19:33:54.085Z,22.60
2019-05-26T19:36:22.511Z,23.80
2019-05-26T19:38:50.964Z,20.93
2019-05-26T19:41:19.398Z,21.03
2019-05-26T19:43:47.781Z,19.03
2019-05-26T19:46:16.232Z,17.70
2019-05-26T19:48:44.733Z,17.37
2019-05-26T19:51:13.131Z,21.97
2019-05-26T19:53:41.550Z,18.80
2019-05-26T19:56:09.960Z,15.07
2019-05-26T19:58:38.405Z,14.87
2019-05-26T20:01:06.827Z,14.43
2019-05-26T20:03:35.209Z,15.60
2019-05-26T20:06:03.661Z,13.17
2019-05-26T20:08:32.119Z,12.77
2019-05-26T20:11:00.524Z,10.73
2019-05-26T20:13:28.937Z,9.60
2019-05-26T20:15:57.395Z,12.33
2019-05-26T20:18:25.854Z,11.20
2019-05-26T20:20:54.248Z,13.87
2019-05-26T20:23:22.645Z,11.73
2019-05-26T20:25:51.059Z,11.10
2019-05-26T20:28:21.142Z,8.13
2019-05-26T20:30:49.615Z,10.87
2019-05-26T20:33:18.106Z,8.30
2019-05-26T20:35:46.541Z,10.33
2019-05-26T20:38:14.920Z,8.20
2019-05-26T20:40:43.630Z,10.13
2019-05-26T20:43:11.990Z,9.30
2019-05-26T20:45:40.396Z,8.20
2019-05-26T20:48:08.787Z,10.10
2019-05-26T20:50:37.224Z,8.80
2019-05-26T20:53:05.617Z,9.53
2019-05-26T20:55:34.050Z,8.30
2019-05-26T20:58:02.453Z,8.07
2019-05-26T21:00:30.820Z,5.90
2019-05-26T21:02:59.261Z,5.93
2019-05-26T21:05:27.644Z,8.27
2019-05-26T21:07:56.191Z,7.57
2019-05-26T21:10:24.510Z,7.07
2019-05-26T21:12:52.941Z,9.70
2019-05-26T21:15:21.451Z,9.80
2019-05-26T21:17:49.940Z,8.27
2019-05-26T21:20:19.221Z,9.00
2019-05-26T21:22:47.656Z,15.53
2019-05-26T21:25:16.144Z,14.13
2019-05-26T21:27:44.520Z,11.70
2019-05-26T21:30:12.927Z,15.97
2019-05-26T21:32:41.352Z,16.20
2019-05-26T21:35:09.803Z,14.43
2019-05-26T21:37:38.180Z,17.13
2019-05-26T21:40:08.103Z,19.43
2019-05-26T21:42:36.500Z,18.70
2019-05-26T21:45:06.438Z,19.73
2019-05-26T21:47:34.862Z,20.83
2019-05-26T21:50:03.254Z,24.53
2019-05-26T21:52:31.750Z,20.10
2019-05-26T21:55:00.200Z,19.40
2019-05-26T21:57:28.636Z,22.07
2019-05-26T21:59:57.031Z,22.50
2019-05-26T22:02:25.497Z,19.00
2019-05-26T22:04:53.896Z,22.90
2019-05-26T22:07:22.300Z,24.77
2019-05-26T22:09:50.726Z,25.90
2019-05-26T22:12:19.193Z,25.67
2019-05-26T22:14:47.661Z,21.70
2019-05-26T22:17:16.163Z,25.77
2019-05-26T22:19:44.660Z,24.93
2019-05-26T22:22:13.068Z,26.57
2019-05-26T22:24:41.494Z,24.77
2019-05-26T22:27:09.899Z,28.30
2019-05-26T22:29:38.381Z,30.17
2019-05-26T22:32:06.768Z,24.47
2019-05-26T22:34:35.156Z,28.27
2019-05-26T22:37:03.560Z,30.03
2019-05-26T22:39:31.971Z,21.77
2019-05-26T22:42:00.356Z,26.63
2019-05-26T22:44:28.770Z,24.63
2019-05-26T22:46:57.156Z,21.30
2019-05-26T22:49:25.598Z,24.57
2019-05-26T22:51:54.821Z,27.17
2019-05-26T22:54:23.231Z,21.07
2019-05-26T22:56:51.644Z,17.33
2019-05-26T22:59:20.027Z,24.30
2019-05-26T23:01:48.484Z,25.37
2019-05-26T23:04:16.875Z,25.87
2019-05-26T23:06:45.316Z,21.53
2019-05-26T23:09:13.676Z,28.77
2019-05-26T23:11:42.104Z,26.37
2019-05-26T23:14:10.482Z,28.83
2019-05-26T23:16:48.317Z,21.13
2019-05-26T23:19:19.710Z,26.80
2019-05-26T23:21:46.783Z,19.07
2019-05-26T23:24:15.188Z,24.40
2019-05-26T23:26:43.678Z,27.57
2019-05-26T23:29:12.095Z,22.17
2019-05-26T23:31:40.470Z,23.60
2019-05-26T23:34:08.879Z,21.37
2019-05-26T23:36:37.269Z,23.57
2019-05-26T23:39:06.749Z,23.50
2019-05-26T23:41:35.177Z,18.67
2019-05-26T23:44:03.518Z,20.83
2019-05-26T23:46:31.984Z,19.93
2019-05-26T23:49:00.419Z,17.07
2019-05-26T23:51:28.844Z,18.30
2019-05-26T23:53:57.282Z,20.57
2019-05-26T23:56:25.720Z,17.13
2019-05-26T23:58:54.380Z,13.33
